Time;durP1;ratioP1;P1;durP2;ratioP2;P2;SDS_P1;SDS_P2;PMS_P1;PMS_P2;Temp;Humidity;BMP_temperature;BMP_pressure;BME280_temperature;BME280_humidity;BME280_pressure;Samples;Min_cycle;Max_cycle;Signal;HPM_P1;HPM_P2
2022/04/14 04:01:22;;;;;;;7.20;5.27;;;10.40;99.90;;;;;;5574777;23;20488;-80
2022/04/14 04:03:49;;;;;;;9.00;5.90;;;10.40;99.90;;;;;;4976760;28;20539;-79
2022/04/14 04:06:15;;;;;;;7.67;5.67;;;10.40;99.90;;;;;;4976343;28;20464;-79
2022/04/14 04:08:42;;;;;;;10.57;5.77;;;10.40;99.90;;;;;;4980596;28;20498;-80
2022/04/14 04:11:09;;;;;;;7.73;5.40;;;10.30;99.90;;;;;;4988322;28;20498;-80
2022/04/14 04:13:36;;;;;;;7.03;5.43;;;10.30;99.90;;;;;;5000363;28;20526;-80
2022/04/14 04:16:03;;;;;;;9.93;5.93;;;10.30;99.90;;;;;;4999792;28;20451;-79
2022/04/14 04:18:33;;;;;;;6.83;5.47;;;10.30;99.90;;;;;;4998376;28;20455;-79
2022/04/14 04:21:00;;;;;;;12.20;5.97;;;10.30;99.90;;;;;;4999720;28;20479;-79
2022/04/14 04:23:27;;;;;;;7.27;5.87;;;10.30;99.90;;;;;;4999577;28;20447;-80
2022/04/14 04:25:54;;;;;;;8.37;6.20;;;10.20;99.90;;;;;;5000148;28;20550;-80
2022/04/14 04:28:20;;;;;;;9.17;6.10;;;10.30;99.90;;;;;;4998489;28;20499;-80
2022/04/14 04:30:48;;;;;;;7.90;6.20;;;10.20;99.90;;;;;;4999743;28;20503;-80
2022/04/14 04:33:15;;;;;;;9.37;5.93;;;10.20;99.90;;;;;;4999915;28;20478;-79
2022/04/14 04:35:43;;;;;;;8.97;5.77;;;10.10;99.90;;;;;;4999689;28;20462;-80
2022/04/14 04:38:10;;;;;;;8.37;6.53;;;10.20;99.90;;;;;;4999782;28;20849;-79
2022/04/14 04:40:37;;;;;;;10.40;6.47;;;10.20;99.90;;;;;;4998916;28;20607;-80
2022/04/14 04:43:04;;;;;;;9.30;6.23;;;10.20;99.90;;;;;;4999857;28;20460;-80
2022/04/14 04:45:30;;;;;;;7.27;6.40;;;10.10;99.90;;;;;;4998155;28;20463;-80
2022/04/14 04:47:57;;;;;;;9.03;6.70;;;10.10;99.90;;;;;;4995473;28;20828;-80
2022/04/14 04:50:24;;;;;;;9.17;6.73;;;10.00;99.90;;;;;;4998063;28;20547;-81
2022/04/14 04:52:52;;;;;;;11.53;6.23;;;10.00;99.90;;;;;;4998181;28;21022;-80
2022/04/14 04:55:19;;;;;;;7.17;5.50;;;10.00;99.90;;;;;;4997342;28;20484;-79
2022/04/14 04:57:46;;;;;;;9.23;6.20;;;10.00;99.90;;;;;;4997439;28;20463;-82
2022/04/14 05:00:14;;;;;;;6.93;6.10;;;10.00;99.90;;;;;;4998024;28;20440;-79
2022/04/14 05:02:41;;;;;;;9.70;6.20;;;10.00;99.90;;;;;;4997031;28;20984;-80
2022/04/14 05:05:08;;;;;;;8.40;6.47;;;10.00;99.90;;;;;;4997207;28;20451;-80
2022/04/14 05:07:37;;;;;;;8.50;6.77;;;10.00;99.90;;;;;;4994289;28;20503;-82
2022/04/14 05:10:08;;;;;;;11.90;7.47;;;9.90;99.90;;;;;;4995281;28;20487;-82
2022/04/14 05:12:35;;;;;;;8.70;6.70;;;9.90;99.90;;;;;;4996051;28;20502;-82
2022/04/14 05:15:01;;;;;;;8.97;7.40;;;9.80;99.90;;;;;;4996815;28;20455;-81
2022/04/14 05:17:28;;;;;;;9.30;6.93;;;9.80;99.90;;;;;;4997266;28;20458;-82
2022/04/14 05:19:55;;;;;;;6.97;6.30;;;9.80;99.90;;;;;;4999600;28;20542;-87
2022/04/14 05:22:22;;;;;;;9.07;6.20;;;9.80;99.90;;;;;;5000991;28;20562;-82
2022/04/14 05:24:49;;;;;;;7.53;6.33;;;9.80;99.90;;;;;;5001448;28;20467;-81
2022/04/14 05:27:17;;;;;;;9.00;6.53;;;9.80;99.90;;;;;;5002204;28;20465;-84
2022/04/14 05:29:44;;;;;;;8.50;6.80;;;9.80;99.90;;;;;;5000720;28;20491;-84
2022/04/14 05:32:11;;;;;;;8.10;6.57;;;9.80;99.90;;;;;;5003008;28;20467;-82
2022/04/14 05:34:37;;;;;;;9.40;6.90;;;9.80;99.90;;;;;;5002598;28;20467;-82
2022/04/14 05:37:05;;;;;;;9.50;6.33;;;9.70;99.90;;;;;;5003575;28;20459;-81
2022/04/14 05:39:32;;;;;;;9.13;5.80;;;9.70;99.90;;;;;;5001688;28;20511;-82
2022/04/14 05:41:59;;;;;;;8.87;6.90;;;9.70;99.90;;;;;;5001726;28;20470;-81
2022/04/14 05:44:27;;;;;;;10.30;6.40;;;9.70;99.90;;;;;;5002007;28;20463;-83
2022/04/14 05:46:54;;;;;;;7.10;6.13;;;9.80;99.90;;;;;;5002349;28;20464;-82
2022/04/14 05:49:20;;;;;;;9.33;7.27;;;9.80;99.90;;;;;;5002139;28;20938;-82
2022/04/14 05:51:47;;;;;;;7.70;6.53;;;9.80;99.90;;;;;;5002530;28;21003;-81
2022/04/14 05:54:15;;;;;;;10.60;7.17;;;9.90;99.90;;;;;;5003878;28;20483;-82
2022/04/14 05:56:42;;;;;;;10.67;7.40;;;9.90;99.90;;;;;;5003410;28;20455;-83
2022/04/14 05:59:16;;;;;;;12.43;7.23;;;9.90;99.90;;;;;;5002567;28;20448;-82
2022/04/14 06:01:45;;;;;;;8.33;6.97;;;10.00;99.90;;;;;;4999814;28;20474;-83
2022/04/14 06:04:12;;;;;;;13.20;7.07;;;10.00;99.90;;;;;;4999619;28;20452;-87
2022/04/14 06:06:39;;;;;;;7.80;6.93;;;10.00;99.90;;;;;;4998251;28;20452;-82
2022/04/14 06:09:07;;;;;;;10.13;6.37;;;10.10;99.90;;;;;;4999691;28;20591;-80
2022/04/14 06:11:34;;;;;;;9.03;6.70;;;10.10;99.90;;;;;;4998791;28;20480;-85
2022/04/14 06:14:01;;;;;;;9.77;7.07;;;10.10;99.90;;;;;;4998596;28;20483;-84
2022/04/14 06:16:31;;;;;;;9.97;6.77;;;10.10;99.90;;;;;;5000372;28;20495;-78
2022/04/14 06:18:59;;;;;;;9.97;7.00;;;10.10;99.90;;;;;;5002328;28;20462;-81
2022/04/14 06:21:27;;;;;;;17.60;7.70;;;10.10;99.90;;;;;;4997345;28;20498;-82
2022/04/14 06:23:53;;;;;;;11.23;8.37;;;10.10;99.90;;;;;;5000305;28;20514;-82
2022/04/14 06:26:20;;;;;;;10.60;7.30;;;10.20;99.90;;;;;;5002064;28;21434;-82
2022/04/14 06:28:49;;;;;;;11.00;7.97;;;10.20;99.90;;;;;;4997044;28;20496;-82
2022/04/14 06:31:16;;;;;;;10.73;8.10;;;10.30;99.90;;;;;;4999897;28;20480;-82
2022/04/14 06:33:44;;;;;;;13.50;8.00;;;10.40;99.90;;;;;;5002823;28;20526;-82
2022/04/14 06:36:12;;;;;;;17.87;8.90;;;10.40;99.90;;;;;;5003338;28;20463;-82
2022/04/14 06:38:40;;;;;;;11.17;8.10;;;10.50;99.90;;;;;;4996385;28;20460;-78
2022/04/14 06:41:07;;;;;;;11.43;7.90;;;10.50;99.90;;;;;;4996280;28;20479;-81
2022/04/14 06:43:34;;;;;;;11.97;7.60;;;10.60;99.90;;;;;;5000271;28;20483;-83
2022/04/14 06:46:03;;;;;;;10.30;8.10;;;10.60;99.90;;;;;;4998851;28;20551;-81
2022/04/14 06:48:31;;;;;;;15.63;9.43;;;10.60;99.90;;;;;;4997529;28;20527;-82
2022/04/14 06:50:58;;;;;;;16.23;11.27;;;10.70;99.90;;;;;;4999676;28;21131;-82
2022/04/14 06:53:26;;;;;;;12.13;9.90;;;10.80;99.90;;;;;;4999491;28;20948;-82
2022/04/14 06:55:53;;;;;;;14.97;10.97;;;10.80;99.90;;;;;;4996799;28;20463;-82
2022/04/14 06:58:20;;;;;;;16.20;11.10;;;10.80;99.90;;;;;;4994994;28;20475;-84
2022/04/14 07:00:47;;;;;;;17.60;11.70;;;11.00;99.90;;;;;;4993630;28;20522;-85
2022/04/14 07:03:14;;;;;;;21.40;13.00;;;11.10;99.90;;;;;;4993840;28;20442;-83
2022/04/14 07:05:41;;;;;;;17.53;12.20;;;11.20;99.90;;;;;;4994514;28;20558;-83
2022/04/14 07:08:08;;;;;;;20.10;13.80;;;11.30;99.90;;;;;;4993195;28;20994;-83
2022/04/14 07:10:36;;;;;;;25.40;16.80;;;11.40;99.90;;;;;;4994633;28;21103;-86
2022/04/14 07:13:04;;;;;;;24.60;17.37;;;11.60;99.90;;;;;;4998047;28;20881;-82
2022/04/14 07:15:30;;;;;;;22.20;16.27;;;11.60;99.90;;;;;;4999959;28;20455;-82
2022/04/14 07:17:57;;;;;;;27.10;15.60;;;11.80;99.90;;;;;;4998526;28;20527;-83
2022/04/14 07:20:29;;;;;;;30.30;15.87;;;11.90;99.90;;;;;;4999063;28;20463;-85
2022/04/14 07:22:58;;;;;;;32.00;17.30;;;12.00;99.90;;;;;;5001374;28;20440;-83
2022/04/14 07:25:25;;;;;;;31.87;19.70;;;12.10;99.90;;;;;;5002864;28;20451;-86
2022/04/14 07:27:53;;;;;;;29.50;19.57;;;12.10;99.90;;;;;;5001804;28;20515;-83
2022/04/14 07:30:21;;;;;;;27.63;20.23;;;12.20;99.90;;;;;;5002988;28;20506;-84
2022/04/14 07:32:48;;;;;;;29.00;19.10;;;12.30;99.90;;;;;;5001442;28;20551;-83
2022/04/14 07:35:15;;;;;;;33.23;19.20;;;12.40;99.90;;;;;;5002493;28;20523;-83
2022/04/14 07:37:43;;;;;;;27.03;17.80;;;12.60;99.90;;;;;;5001383;28;21050;-86
2022/04/14 07:40:10;;;;;;;25.27;19.17;;;12.70;99.90;;;;;;5002052;28;20454;-84
2022/04/14 07:42:39;;;;;;;27.10;17.97;;;12.80;99.90;;;;;;5001929;28;20507;-83
2022/04/14 07:45:10;;;;;;;24.77;17.10;;;12.90;99.90;;;;;;5002412;28;20519;-83
2022/04/14 07:47:39;;;;;;;23.73;17.47;;;13.00;99.90;;;;;;5004177;28;20462;-85
2022/04/14 07:50:07;;;;;;;32.97;19.77;;;13.10;99.90;;;;;;5008147;28;20496;-83
2022/04/14 07:52:44;;;;;;;26.37;17.97;;;13.20;99.90;;;;;;5008195;28;20519;-83
2022/04/14 07:55:11;;;;;;;23.30;17.90;;;13.30;99.90;;;;;;5008549;28;20456;-83
2022/04/14 07:57:38;;;;;;;26.23;18.30;;;13.40;99.90;;;;;;5007705;28;20420;-83
2022/04/14 08:00:08;;;;;;;28.33;17.73;;;13.60;99.90;;;;;;5000467;28;20447;-83
2022/04/14 08:02:34;;;;;;;27.40;17.37;;;13.60;99.90;;;;;;4994701;28;20522;-82
2022/04/14 08:05:02;;;;;;;24.87;16.90;;;13.80;99.90;;;;;;4994666;28;20814;-82
2022/04/14 08:07:28;;;;;;;28.33;17.27;;;13.90;99.90;;;;;;4991956;28;20459;-83
2022/04/14 08:09:55;;;;;;;27.00;17.40;;;14.10;99.90;;;;;;4991991;28;20495;-82
2022/04/14 08:12:23;;;;;;;27.57;18.30;;;14.20;99.90;;;;;;4992008;28;20476;-82
2022/04/14 08:14:50;;;;;;;24.03;16.20;;;14.50;99.90;;;;;;4990411;28;20455;-82
2022/04/14 08:17:19;;;;;;;20.03;15.60;;;14.70;99.90;;;;;;4990105;28;20535;-83
2022/04/14 08:19:45;;;;;;;33.50;15.87;;;14.70;99.90;;;;;;4990849;28;20958;-83
2022/04/14 08:22:12;;;;;;;20.77;15.50;;;14.90;99.90;;;;;;4990625;28;20478;-81
2022/04/14 08:24:39;;;;;;;29.10;16.67;;;15.00;99.90;;;;;;4989185;28;20463;-81
2022/04/14 08:27:06;;;;;;;24.60;15.70;;;15.10;99.90;;;;;;4987798;28;20462;-81
2022/04/14 08:29:33;;;;;;;25.77;16.33;;;15.20;99.90;;;;;;4988470;28;20491;-81
2022/04/14 08:32:00;;;;;;;21.43;15.33;;;15.40;99.90;;;;;;4989258;28;20472;-80
2022/04/14 08:34:28;;;;;;;26.43;16.60;;;15.60;99.90;;;;;;4989654;28;20459;-77
2022/04/14 08:36:55;;;;;;;23.20;16.10;;;15.80;99.90;;;;;;4987096;28;20528;-81
2022/04/14 08:39:22;;;;;;;30.07;17.30;;;15.90;99.90;;;;;;4988172;28;20458;-78
2022/04/14 08:41:57;;;;;;;26.80;16.33;;;16.00;99.90;;;;;;4988385;28;20511;-78
2022/04/14 08:44:30;;;;;;;28.03;17.53;;;16.10;99.90;;;;;;4989684;28;20490;-79
2022/04/14 08:46:59;;;;;;;29.27;17.93;;;16.20;99.90;;;;;;4989128;28;20808;-79
2022/04/14 08:49:28;;;;;;;28.50;17.70;;;16.20;99.90;;;;;;4988914;28;20505;-74
2022/04/14 08:51:56;;;;;;;30.67;18.05;;;16.30;99.90;;;;;;4985468;28;20444;-77
2022/04/14 08:54:24;;;;;;;26.47;16.80;;;16.50;99.90;;;;;;4989309;28;20243;-77
2022/04/14 08:56:54;;;;;;;24.47;15.97;;;16.60;99.90;;;;;;4988060;28;20547;-77
2022/04/14 08:59:21;;;;;;;25.10;16.20;;;16.70;99.90;;;;;;4989556;28;20483;-77
2022/04/14 09:01:48;;;;;;;24.83;16.97;;;16.80;99.90;;;;;;4989149;28;20861;-77
2022/04/14 09:04:15;;;;;;;22.70;14.90;;;16.90;99.90;;;;;;4988752;28;20478;-77
2022/04/14 09:06:44;;;;;;;21.23;14.80;;;16.90;99.90;;;;;;4988174;28;21030;-77
2022/04/14 09:09:11;;;;;;;26.37;16.00;;;17.00;99.90;;;;;;4990547;28;20495;-79
2022/04/14 09:11:39;;;;;;;22.80;15.20;;;17.10;99.90;;;;;;4994856;28;20558;-79
2022/04/14 09:14:06;;;;;;;22.07;15.80;;;17.10;99.90;;;;;;4994657;28;20468;-79
2022/04/14 09:16:33;;;;;;;22.73;13.67;;;17.20;99.90;;;;;;4993425;28;20455;-79
2022/04/14 09:19:02;;;;;;;20.67;13.63;;;17.30;99.90;;;;;;4992565;28;20474;-78
2022/04/14 09:21:29;;;;;;;20.63;13.23;;;17.40;99.90;;;;;;4993504;28;20480;-82
2022/04/14 09:23:57;;;;;;;22.33;15.27;;;17.40;99.90;;;;;;4998218;28;20455;-83
2022/04/14 09:26:24;;;;;;;19.10;13.47;;;17.50;99.90;;;;;;4996087;28;20869;-81
2022/04/14 09:29:10;;;;;;;20.97;13.73;;;17.50;99.90;;;;;;4996816;28;20487;-81
2022/04/14 09:31:48;;;;;;;19.27;13.47;;;17.60;99.90;;;;;;4994529;28;20479;-82
2022/04/14 09:34:18;;;;;;;17.90;12.50;;;17.70;99.90;;;;;;4994423;28;20550;-81
2022/04/14 09:37:06;;;;;;;20.67;12.90;;;17.80;99.90;;;;;;4995847;28;20463;-81
2022/04/14 09:39:50;;;;;;;22.37;12.47;;;17.80;99.90;;;;;;4996857;28;20432;-82
2022/04/14 09:42:17;;;;;;;17.87;13.10;;;17.90;99.90;;;;;;4992980;28;20503;-81
2022/04/14 09:44:44;;;;;;;21.57;12.70;;;17.90;99.90;;;;;;4995741;28;20550;-83
2022/04/14 09:47:11;;;;;;;20.57;13.13;;;18.00;99.90;;;;;;4994763;28;20440;-81
2022/04/14 09:49:41;;;;;;;23.23;12.73;;;18.10;99.90;;;;;;4994735;28;20640;-81
2022/04/14 09:52:08;;;;;;;16.60;13.50;;;18.10;99.90;;;;;;4995950;28;20472;-81
2022/04/14 09:54:36;;;;;;;16.03;12.47;;;18.20;99.90;;;;;;4993578;28;20466;-83
2022/04/14 09:57:05;;;;;;;21.10;13.60;;;18.20;99.90;;;;;;4994023;28;20474;-82
2022/04/14 09:59:32;;;;;;;18.93;12.77;;;18.30;99.90;;;;;;4994514;28;20519;-74
2022/04/14 10:02:10;;;;;;;19.63;11.40;;;18.30;99.90;;;;;;4994456;28;20491;-83
2022/04/14 10:04:39;;;;;;;20.17;11.67;;;18.40;99.90;;;;;;4995205;28;20482;-80
2022/04/14 10:07:11;;;;;;;19.13;12.00;;;18.70;99.90;;;;;;4995819;28;20459;-81
2022/04/14 10:09:40;;;;;;;14.70;11.40;;;18.80;99.90;;;;;;4995527;28;20724;-80
2022/04/14 10:12:32;;;;;;;20.07;11.20;;;18.70;99.90;;;;;;4995923;28;20976;-80
2022/04/14 10:15:01;;;;;;;21.10;11.50;;;18.80;99.90;;;;;;4995758;28;20518;-80
2022/04/14 10:17:30;;;;;;;17.70;12.63;;;18.80;99.90;;;;;;4995794;28;20456;-80
2022/04/14 10:19:57;;;;;;;15.87;12.10;;;18.90;99.90;;;;;;4997657;28;20483;-80
2022/04/14 10:22:26;;;;;;;17.27;11.63;;;19.10;99.90;;;;;;4989773;28;20476;-67
2022/04/14 10:24:54;;;;;;;19.73;13.53;;;19.10;99.90;;;;;;4986865;28;20459;-67
2022/04/14 10:27:22;;;;;;;17.03;11.87;;;19.10;99.90;;;;;;4985573;28;20452;-66
2022/04/14 10:29:51;;;;;;;19.50;14.47;;;19.10;99.90;;;;;;4991224;28;20545;-86
2022/04/14 10:32:18;;;;;;;16.17;12.40;;;19.10;99.90;;;;;;5002780;28;20507;-84
2022/04/14 10:34:46;;;;;;;17.87;12.60;;;19.20;99.90;;;;;;5002313;28;20471;-84
2022/04/14 10:37:19;;;;;;;16.00;11.67;;;19.30;99.90;;;;;;5001536;28;20922;-84
2022/04/14 10:39:48;;;;;;;13.03;10.20;;;19.40;99.90;;;;;;5000286;28;20459;-83
2022/04/14 10:42:19;;;;;;;17.90;11.13;;;19.60;99.90;;;;;;4999330;28;20478;-83
2022/04/14 10:44:49;;;;;;;17.23;10.50;;;19.60;99.90;;;;;;5005085;28;20454;-84
2022/04/14 10:47:35;;;;;;;13.77;11.37;;;19.60;99.90;;;;;;5003841;28;20479;-83
2022/04/14 10:50:04;;;;;;;13.63;10.30;;;19.60;99.90;;;;;;5002290;28;20527;-83
2022/04/14 10:52:31;;;;;;;11.87;9.83;;;19.80;99.90;;;;;;5001984;28;20899;-86
2022/04/14 10:54:59;;;;;;;18.73;11.57;;;19.90;99.90;;;;;;5000579;28;20494;-84
2022/04/14 10:57:36;;;;;;;19.57;11.23;;;20.00;99.90;;;;;;4994895;28;20496;-79
2022/04/14 11:00:37;;;;;;;21.30;10.67;;;20.00;99.90;;;;;;4988376;28;21247;-79
2022/04/14 11:03:11;;;;;;;14.13;10.70;;;20.20;99.90;;;;;;4988446;28;20448;-79
2022/04/14 11:05:42;;;;;;;25.07;13.77;;;20.20;99.90;;;;;;4987767;28;20547;-79
2022/04/14 11:08:27;;;;;;;16.30;11.00;;;20.20;99.90;;;;;;4987172;28;21157;-80
2022/04/14 11:10:55;;;;;;;19.00;10.90;;;20.20;99.90;;;;;;4987417;28;20495;-79
2022/04/14 11:13:25;;;;;;;15.23;11.23;;;20.20;99.90;;;;;;4988772;28;20452;-81
2022/04/14 11:15:52;;;;;;;16.37;11.77;;;20.20;99.90;;;;;;4988812;28;20462;-78
2022/04/14 11:18:20;;;;;;;16.17;10.00;;;20.20;99.90;;;;;;4989127;28;20510;-80
2022/04/14 11:20:55;;;;;;;15.13;10.90;;;20.30;99.90;;;;;;4986840;28;20479;-67
2022/04/14 11:23:26;;;;;;;17.50;10.17;;;20.40;99.90;;;;;;4985763;28;20459;-67
2022/04/14 11:26:01;;;;;;;11.93;7.83;;;20.40;99.90;;;;;;4986159;28;20466;-67
2022/04/14 11:28:30;;;;;;;15.97;8.33;;;20.60;99.90;;;;;;4985536;28;20463;-67
2022/04/14 11:30:59;;;;;;;15.00;7.57;;;20.80;99.90;;;;;;4985953;28;20499;-67
2022/04/14 11:33:36;;;;;;;11.40;8.10;;;20.80;99.90;;;;;;4986233;28;20456;-67
2022/04/14 11:36:11;;;;;;;18.83;8.80;;;20.90;99.90;;;;;;4986278;28;20458;-67
2022/04/14 11:39:06;;;;;;;15.00;9.30;;;20.90;99.90;;;;;;4985513;28;20461;-67
2022/04/14 11:41:42;;;;;;;15.20;9.63;;;21.00;99.90;;;;;;4929851;28;20484;-67
2022/04/14 11:44:11;;;;;;;14.60;8.50;;;21.00;99.90;;;;;;4985890;28;20982;-67
2022/04/14 11:46:40;;;;;;;20.43;8.30;;;21.10;99.90;;;;;;4985051;28;20463;-67
2022/04/14 11:49:10;;;;;;;11.90;7.40;;;21.20;99.90;;;;;;4986139;28;20555;-67
2022/04/14 11:51:44;;;;;;;14.83;8.47;;;21.20;99.90;;;;;;4985830;28;20526;-67
2022/04/14 11:54:12;;;;;;;14.80;9.07;;;21.40;99.90;;;;;;4986124;28;21022;-72
2022/04/14 11:56:41;;;;;;;20.53;9.90;;;21.50;99.90;;;;;;4985614;28;20460;-68
2022/04/14 11:59:09;;;;;;;14.73;9.03;;;21.50;99.90;;;;;;4985945;28;20555;-67
2022/04/14 12:01:48;;;;;;;16.80;9.73;;;21.50;99.90;;;;;;4985789;28;20493;-68
2022/04/14 12:04:16;;;;;;;15.87;9.80;;;21.60;99.90;;;;;;4985967;28;20506;-68
2022/04/14 12:06:52;;;;;;;16.43;10.23;;;21.60;99.90;;;;;;4985124;28;21131;-68
2022/04/14 12:09:20;;;;;;;14.30;9.57;;;21.60;99.90;;;;;;4986273;28;20534;-67
2022/04/14 12:11:48;;;;;;;20.40;11.07;;;21.60;99.90;;;;;;4990162;28;20499;-82
2022/04/14 12:14:16;;;;;;;16.30;11.47;;;21.70;99.90;;;;;;4992412;28;20466;-81
2022/04/14 12:16:48;;;;;;;14.73;8.90;;;21.70;99.90;;;;;;4989915;28;20866;-82
2022/04/14 12:19:16;;;;;;;12.83;8.80;;;21.90;99.90;;;;;;4990620;28;20518;-82
2022/04/14 12:21:43;;;;;;;15.17;10.23;;;22.00;99.90;;;;;;4989556;28;20464;-82
2022/04/14 12:24:11;;;;;;;17.67;10.37;;;22.10;99.90;;;;;;4988894;28;20463;-82
2022/04/14 12:26:42;;;;;;;19.40;10.83;;;22.10;99.90;;;;;;4988796;28;20496;-82
2022/04/14 12:29:09;;;;;;;12.90;10.90;;;22.10;99.90;;;;;;4993015;28;20583;-82
2022/04/14 12:31:36;;;;;;;16.33;10.03;;;22.10;99.90;;;;;;4992026;28;21064;-82
2022/04/14 12:34:03;;;;;;;16.03;10.73;;;22.00;99.90;;;;;;4992557;28;20519;-82
2022/04/14 12:36:35;;;;;;;12.47;8.77;;;22.10;99.90;;;;;;4991491;28;20769;-82
2022/04/14 12:39:05;;;;;;;10.63;8.90;;;22.10;99.90;;;;;;4991973;28;20471;-82
2022/04/14 12:41:36;;;;;;;15.23;10.33;;;22.20;99.90;;;;;;4992944;28;20479;-82
2022/04/14 12:44:05;;;;;;;18.20;10.30;;;22.20;99.90;;;;;;4992759;28;20554;-82
2022/04/14 12:46:37;;;;;;;12.67;9.30;;;22.20;99.90;;;;;;4992331;28;20462;-82
2022/04/14 12:49:07;;;;;;;15.70;10.03;;;22.30;99.90;;;;;;4991723;28;20466;-82
2022/04/14 12:51:39;;;;;;;14.57;9.80;;;22.30;99.90;;;;;;4992099;28;20499;-82
2022/04/14 12:54:06;;;;;;;17.13;9.80;;;22.40;99.90;;;;;;4991881;28;20495;-82
2022/04/14 12:56:35;;;;;;;12.97;10.13;;;22.40;99.90;;;;;;4992555;28;20467;-82
2022/04/14 12:59:14;;;;;;;13.10;9.50;;;22.50;99.90;;;;;;4992055;28;20464;-82
2022/04/14 13:01:52;;;;;;;14.83;9.80;;;22.40;99.90;;;;;;4991708;28;20510;-82
2022/04/14 13:04:21;;;;;;;14.63;10.13;;;22.50;99.90;;;;;;4991985;28;20455;-82
2022/04/14 13:07:06;;;;;;;15.73;10.03;;;22.60;99.90;;;;;;4991996;28;20448;-81
2022/04/14 13:09:34;;;;;;;16.30;10.67;;;22.60;99.90;;;;;;4991841;28;20463;-81
2022/04/14 13:12:02;;;;;;;12.90;10.33;;;22.60;99.90;;;;;;4989570;28;20495;-82
2022/04/14 13:14:30;;;;;;;13.20;10.00;;;22.60;99.90;;;;;;4990795;28;20518;-82
2022/04/14 13:16:58;;;;;;;20.30;10.27;;;22.60;99.90;;;;;;4991411;28;20456;-81
2022/04/14 13:19:26;;;;;;;13.00;9.37;;;22.70;99.90;;;;;;4991550;28;20751;-82
2022/04/14 13:21:53;;;;;;;17.77;11.20;;;22.80;99.90;;;;;;4992363;28;20555;-82
2022/04/14 13:24:24;;;;;;;14.20;10.97;;;22.90;99.90;;;;;;4992261;28;20462;-81
2022/04/14 13:26:53;;;;;;;15.57;10.40;;;22.90;99.90;;;;;;4991815;28;20518;-82
2022/04/14 13:29:21;;;;;;;11.57;8.70;;;22.90;99.90;;;;;;4991895;28;20460;-82
2022/04/14 13:31:50;;;;;;;21.70;10.47;;;22.90;99.90;;;;;;4991545;28;20550;-82
2022/04/14 13:34:17;;;;;;;16.30;10.33;;;22.90;99.90;;;;;;4991814;28;20455;-82
2022/04/14 13:36:44;;;;;;;16.00;10.83;;;23.00;99.90;;;;;;4991110;28;20455;-81
2022/04/14 13:39:11;;;;;;;14.57;8.33;;;23.10;99.90;;;;;;4991229;28;20463;-81
2022/04/14 13:41:39;;;;;;;13.93;9.60;;;23.10;99.90;;;;;;4992281;28;20503;-81
2022/04/14 13:44:07;;;;;;;20.37;11.67;;;23.10;99.90;;;;;;4992012;28;20551;-82
2022/04/14 13:46:33;;;;;;;19.33;11.70;;;23.20;99.90;;;;;;4991886;28;20459;-82
2022/04/14 13:49:00;;;;;;;17.20;10.67;;;23.20;99.90;;;;;;4992242;28;20550;-82
2022/04/14 13:51:27;;;;;;;15.90;12.07;;;23.30;99.90;;;;;;4991789;28;20582;-82
2022/04/14 13:53:54;;;;;;;18.10;12.57;;;23.30;99.90;;;;;;4991534;28;20628;-82
2022/04/14 13:56:21;;;;;;;16.40;11.37;;;23.20;99.90;;;;;;4991022;28;20455;-82
2022/04/14 13:58:49;;;;;;;16.93;10.63;;;23.20;99.90;;;;;;4991481;28;20843;-82
2022/04/14 14:01:16;;;;;;;17.13;12.70;;;23.30;99.90;;;;;;4991251;28;20574;-82
2022/04/14 14:03:43;;;;;;;19.43;12.37;;;23.40;99.90;;;;;;4992336;28;20619;-82
2022/04/14 14:06:10;;;;;;;13.47;11.73;;;23.40;99.90;;;;;;4991578;28;20519;-82
2022/04/14 14:08:37;;;;;;;16.20;10.30;;;23.50;99.90;;;;;;4991663;28;20502;-82
2022/04/14 14:11:04;;;;;;;14.10;10.57;;;23.60;99.90;;;;;;4992766;28;20590;-82
2022/04/14 14:13:32;;;;;;;16.30;11.20;;;23.70;99.90;;;;;;4994536;28;20491;-81
2022/04/14 14:16:00;;;;;;;12.67;10.50;;;23.60;99.90;;;;;;4993776;28;20452;-82
2022/04/14 14:18:27;;;;;;;16.70;13.80;;;23.50;99.90;;;;;;4995573;28;20870;-81
2022/04/14 14:20:54;;;;;;;16.10;11.27;;;23.40;99.90;;;;;;5005398;28;20472;-81
2022/04/14 14:23:21;;;;;;;14.10;11.10;;;23.40;99.90;;;;;;5010023;28;20458;-81
2022/04/14 14:25:48;;;;;;;15.53;11.50;;;23.50;99.90;;;;;;5003676;28;20460;-81
2022/04/14 14:28:16;;;;;;;20.00;13.43;;;23.60;99.90;;;;;;5004111;28;20435;-80
2022/04/14 14:30:43;;;;;;;17.10;13.60;;;23.40;99.90;;;;;;5004331;28;20499;-80
2022/04/14 14:33:12;;;;;;;18.90;13.70;;;23.30;99.90;;;;;;4998672;28;21017;-80
2022/04/14 14:35:39;;;;;;;18.90;13.60;;;23.20;99.90;;;;;;4991947;28;20452;-79
2022/04/14 14:38:06;;;;;;;24.63;15.13;;;23.30;99.90;;;;;;4991062;28;20463;-78
2022/04/14 14:40:33;;;;;;;14.17;11.30;;;23.20;99.90;;;;;;4990022;28;20546;-78
2022/04/14 14:43:00;;;;;;;15.60;12.20;;;23.30;99.90;;;;;;4990080;28;20999;-78
2022/04/14 14:45:27;;;;;;;14.30;11.70;;;23.40;99.90;;;;;;4990937;28;21341;-80
2022/04/14 14:47:54;;;;;;;20.50;13.90;;;23.40;99.90;;;;;;4989531;28;20466;-77
2022/04/14 14:50:22;;;;;;;17.47;11.43;;;23.40;99.90;;;;;;4989062;28;20456;-79
2022/04/14 14:52:50;;;;;;;16.93;13.17;;;23.50;99.90;;;;;;4990164;28;20455;-78
2022/04/14 14:55:17;;;;;;;16.77;13.83;;;23.60;99.90;;;;;;4990087;28;20463;-79
2022/04/14 15:00:28;;;;;;;20.27;13.50;;;23.50;99.90;;;;;;4992380;28;20487;-80
2022/04/14 15:02:55;;;;;;;15.87;12.80;;;23.40;99.90;;;;;;4991335;28;20817;-79
2022/04/14 15:05:23;;;;;;;15.03;12.57;;;23.30;99.90;;;;;;4990914;28;20559;-79
2022/04/14 15:07:52;;;;;;;15.70;13.27;;;23.20;99.90;;;;;;4990844;28;20454;-80
2022/04/14 15:10:24;;;;;;;23.10;12.73;;;23.20;99.90;;;;;;4990994;28;20451;-80
2022/04/14 15:12:52;;;;;;;17.43;13.40;;;23.20;99.90;;;;;;4991556;28;20466;-80
2022/04/14 15:15:26;;;;;;;16.43;11.90;;;23.20;99.90;;;;;;4991159;28;20471;-79
2022/04/14 15:17:55;;;;;;;16.67;13.17;;;23.30;99.90;;;;;;4990498;28;20448;-79
2022/04/14 15:20:27;;;;;;;20.73;14.57;;;23.30;99.90;;;;;;4991303;28;20462;-80
2022/04/14 15:22:54;;;;;;;19.53;13.47;;;23.30;99.90;;;;;;4991432;28;20455;-80
2022/04/14 15:25:21;;;;;;;21.07;12.17;;;23.30;99.90;;;;;;4991679;28;20448;-79
2022/04/14 15:27:48;;;;;;;18.93;13.33;;;23.30;99.90;;;;;;4990222;28;20979;-79
2022/04/14 15:30:14;;;;;;;19.87;15.43;;;23.30;99.90;;;;;;4991857;28;20555;-79
2022/04/14 15:32:41;;;;;;;17.87;14.10;;;23.30;99.90;;;;;;4991762;28;20504;-80
2022/04/14 15:35:09;;;;;;;18.90;15.40;;;23.20;99.90;;;;;;4991062;28;20506;-80
2022/04/14 15:37:37;;;;;;;17.73;13.87;;;23.20;99.90;;;;;;4989804;28;20848;-80
2022/04/14 15:40:06;;;;;;;15.70;12.93;;;23.20;99.90;;;;;;4990084;28;20494;-79
2022/04/14 15:42:34;;;;;;;16.93;14.27;;;23.30;99.90;;;;;;4991725;28;20475;-80
2022/04/14 15:45:01;;;;;;;16.37;14.30;;;23.30;99.90;;;;;;4992770;28;20463;-80
2022/04/14 15:47:27;;;;;;;26.00;13.87;;;23.30;99.90;;;;;;4992957;28;20467;-80
2022/04/14 15:49:55;;;;;;;21.37;14.93;;;23.30;99.90;;;;;;4991462;28;20466;-81
2022/04/14 15:52:23;;;;;;;16.90;14.20;;;23.30;99.90;;;;;;4990702;28;20571;-80
2022/04/14 15:54:52;;;;;;;22.87;14.03;;;23.20;99.90;;;;;;4989920;28;20490;-78
2022/04/14 15:57:19;;;;;;;14.60;11.10;;;23.10;99.90;;;;;;4988339;28;20475;-79
2022/04/14 15:59:46;;;;;;;17.53;13.30;;;23.20;99.90;;;;;;4989618;28;20456;-80
2022/04/14 16:02:13;;;;;;;16.23;11.63;;;23.20;99.90;;;;;;4992442;28;20483;-80
2022/04/14 16:04:40;;;;;;;16.80;13.50;;;23.30;99.90;;;;;;4993355;28;20459;-80
2022/04/14 16:07:07;;;;;;;18.13;13.47;;;23.20;99.90;;;;;;4993203;28;20455;-80
2022/04/14 16:12:16;;;;;;;20.20;13.97;;;23.20;99.90;;;;;;4991813;28;20492;-78
2022/04/14 16:14:43;;;;;;;15.83;12.33;;;23.00;99.90;;;;;;4992555;28;20483;-78
2022/04/14 16:17:11;;;;;;;15.47;13.87;;;23.00;99.90;;;;;;4991732;28;20456;-78
2022/04/14 16:19:38;;;;;;;21.00;12.83;;;22.90;99.90;;;;;;4991989;28;20458;-80
2022/04/14 16:22:05;;;;;;;16.03;13.43;;;22.80;99.90;;;;;;4993273;28;20510;-80
2022/04/14 16:24:32;;;;;;;17.90;12.93;;;22.70;99.90;;;;;;4994409;28;20858;-81
2022/04/14 16:26:59;;;;;;;13.33;11.93;;;22.60;99.90;;;;;;4992583;28;20455;-80
2022/04/14 16:29:28;;;;;;;17.77;12.83;;;22.50;99.90;;;;;;4993369;28;20487;-80
2022/04/14 16:31:55;;;;;;;13.37;11.10;;;22.50;99.90;;;;;;4992809;28;20490;-80
2022/04/14 16:34:22;;;;;;;16.10;12.53;;;22.50;99.90;;;;;;4993732;28;20461;-80
2022/04/14 16:36:50;;;;;;;13.20;10.40;;;22.40;99.90;;;;;;4990147;28;20459;-67
2022/04/14 16:39:17;;;;;;;13.43;10.60;;;22.40;99.90;;;;;;4989084;28;20483;-67
2022/04/14 16:41:44;;;;;;;19.10;12.60;;;22.40;99.90;;;;;;4989173;28;20486;-69
2022/04/14 16:44:11;;;;;;;13.97;10.33;;;22.30;99.90;;;;;;4989319;28;20459;-71
2022/04/14 16:46:40;;;;;;;13.90;9.13;;;22.30;99.90;;;;;;4990821;28;20451;-81